sensor_id;sensor_type;location;lat;lon;timestamp;temperature;humidity
6206;DHT22;3136;48.788;9.772;2022-08-21T00:01:55;14.80;98.80
6206;DHT22;3136;48.788;9.772;2022-08-21T00:04:21;14.70;98.70
6206;DHT22;3136;48.788;9.772;2022-08-21T00:06:47;14.70;98.60
6206;DHT22;3136;48.788;9.772;2022-08-21T00:09:12;14.70;98.60
6206;DHT22;3136;48.788;9.772;2022-08-21T00:11:39;14.60;98.60
6206;DHT22;3136;48.788;9.772;2022-08-21T00:14:07;14.60;98.70
6206;DHT22;3136;48.788;9.772;2022-08-21T00:16:33;14.60;98.90
6206;DHT22;3136;48.788;9.772;2022-08-21T00:18:59;14.70;99.00
6206;DHT22;3136;48.788;9.772;2022-08-21T00:21:24;14.70;99.10
6206;DHT22;3136;48.788;9.772;2022-08-21T00:23:51;14.60;99.10
6206;DHT22;3136;48.788;9.772;2022-08-21T00:26:16;14.60;98.90
6206;DHT22;3136;48.788;9.772;2022-08-21T00:28:42;14.50;98.70
6206;DHT22;3136;48.788;9.772;2022-08-21T00:31:08;14.60;98.70
6206;DHT22;3136;48.788;9.772;2022-08-21T00:33:33;14.50;98.80
6206;DHT22;3136;48.788;9.772;2022-08-21T00:35:59;14.50;98.80
6206;DHT22;3136;48.788;9.772;2022-08-21T00:38:24;14.50;98.90
6206;DHT22;3136;48.788;9.772;2022-08-21T00:40:57;14.50;99.10
6206;DHT22;3136;48.788;9.772;2022-08-21T00:43:27;14.50;99.10
6206;DHT22;3136;48.788;9.772;2022-08-21T00:45:54;14.40;99.00
6206;DHT22;3136;48.788;9.772;2022-08-21T00:48:21;14.30;98.90
6206;DHT22;3136;48.788;9.772;2022-08-21T00:50:54;14.20;98.70
6206;DHT22;3136;48.788;9.772;2022-08-21T00:53:21;14.30;98.80
6206;DHT22;3136;48.788;9.772;2022-08-21T00:55:47;14.20;98.70
6206;DHT22;3136;48.788;9.772;2022-08-21T00:58:14;14.20;98.70
6206;DHT22;3136;48.788;9.772;2022-08-21T01:00:43;14.20;98.70
6206;DHT22;3136;48.788;9.772;2022-08-21T01:03:18;14.30;98.80
6206;DHT22;3136;48.788;9.772;2022-08-21T01:05:44;14.20;99.00
6206;DHT22;3136;48.788;9.772;2022-08-21T01:08:11;14.20;99.20
6206;DHT22;3136;48.788;9.772;2022-08-21T01:10:37;14.30;99.50
6206;DHT22;3136;48.788;9.772;2022-08-21T01:13:04;14.30;99.60
6206;DHT22;3136;48.788;9.772;2022-08-21T01:15:35;14.10;99.50
6206;DHT22;3136;48.788;9.772;2022-08-21T01:18:03;14.30;99.60
6206;DHT22;3136;48.788;9.772;2022-08-21T01:20:29;14.30;99.70
6206;DHT22;3136;48.788;9.772;2022-08-21T01:22:55;14.30;99.70
6206;DHT22;3136;48.788;9.772;2022-08-21T01:25:21;14.30;99.70
6206;DHT22;3136;48.788;9.772;2022-08-21T01:27:47;14.30;99.90
6206;DHT22;3136;48.788;9.772;2022-08-21T01:30:19;14.60;99.90
6206;DHT22;3136;48.788;9.772;2022-08-21T01:32:45;14.20;99.70
6206;DHT22;3136;48.788;9.772;2022-08-21T01:35:12;14.10;99.60
6206;DHT22;3136;48.788;9.772;2022-08-21T01:37:38;14.10;99.50
6206;DHT22;3136;48.788;9.772;2022-08-21T01:40:05;14.20;99.60
6206;DHT22;3136;48.788;9.772;2022-08-21T01:42:31;14.10;99.50
6206;DHT22;3136;48.788;9.772;2022-08-21T01:44:57;14.10;99.60
6206;DHT22;3136;48.788;9.772;2022-08-21T01:47:23;14.00;99.40
6206;DHT22;3136;48.788;9.772;2022-08-21T01:49:49;14.00;99.20
6206;DHT22;3136;48.788;9.772;2022-08-21T01:52:15;14.10;99.10
6206;DHT22;3136;48.788;9.772;2022-08-21T01:54:41;13.80;98.90
6206;DHT22;3136;48.788;9.772;2022-08-21T01:57:07;13.80;98.90
6206;DHT22;3136;48.788;9.772;2022-08-21T01:59:33;13.70;98.70
6206;DHT22;3136;48.788;9.772;2022-08-21T02:01:58;13.70;98.60
6206;DHT22;3136;48.788;9.772;2022-08-21T02:04:24;13.50;98.40
6206;DHT22;3136;48.788;9.772;2022-08-21T02:06:50;13.50;98.40
6206;DHT22;3136;48.788;9.772;2022-08-21T02:09:16;13.90;98.60
6206;DHT22;3136;48.788;9.772;2022-08-21T02:11:42;13.50;98.50
6206;DHT22;3136;48.788;9.772;2022-08-21T02:14:13;13.50;98.50
6206;DHT22;3136;48.788;9.772;2022-08-21T02:16:40;13.50;98.50
6206;DHT22;3136;48.788;9.772;2022-08-21T02:19:06;13.50;98.70
6206;DHT22;3136;48.788;9.772;2022-08-21T02:21:32;13.50;98.80
6206;DHT22;3136;48.788;9.772;2022-08-21T02:23:58;13.50;99.00
6206;DHT22;3136;48.788;9.772;2022-08-21T02:26:24;13.50;99.10
6206;DHT22;3136;48.788;9.772;2022-08-21T02:28:50;13.40;98.90
6206;DHT22;3136;48.788;9.772;2022-08-21T02:31:15;13.40;98.80
6206;DHT22;3136;48.788;9.772;2022-08-21T02:33:41;13.40;98.60
6206;DHT22;3136;48.788;9.772;2022-08-21T02:36:08;13.50;98.60
6206;DHT22;3136;48.788;9.772;2022-08-21T02:38:35;13.30;98.40
6206;DHT22;3136;48.788;9.772;2022-08-21T02:41:08;13.40;98.50
6206;DHT22;3136;48.788;9.772;2022-08-21T02:43:34;13.80;98.70
6206;DHT22;3136;48.788;9.772;2022-08-21T02:46:01;13.20;98.50
6206;DHT22;3136;48.788;9.772;2022-08-21T02:48:30;13.20;98.50
6206;DHT22;3136;48.788;9.772;2022-08-21T02:50:59;13.20;98.50
6206;DHT22;3136;48.788;9.772;2022-08-21T02:53:25;13.20;98.70
6206;DHT22;3136;48.788;9.772;2022-08-21T02:55:52;13.30;98.90
6206;DHT22;3136;48.788;9.772;2022-08-21T02:58:22;13.40;99.10
6206;DHT22;3136;48.788;9.772;2022-08-21T03:00:48;13.10;98.90
6206;DHT22;3136;48.788;9.772;2022-08-21T03:03:15;13.30;99.00
6206;DHT22;3136;48.788;9.772;2022-08-21T03:05:42;13.20;99.10
6206;DHT22;3136;48.788;9.772;2022-08-21T03:08:09;13.30;99.10
6206;DHT22;3136;48.788;9.772;2022-08-21T03:10:37;13.20;99.00
6206;DHT22;3136;48.788;9.772;2022-08-21T03:13:03;13.20;99.00
6206;DHT22;3136;48.788;9.772;2022-08-21T03:15:29;13.70;99.20
6206;DHT22;3136;48.788;9.772;2022-08-21T03:17:55;13.20;99.00
6206;DHT22;3136;48.788;9.772;2022-08-21T03:20:24;13.10;99.10
6206;DHT22;3136;48.788;9.772;2022-08-21T03:22:51;13.00;98.60
6206;DHT22;3136;48.788;9.772;2022-08-21T03:25:17;13.00;98.40
6206;DHT22;3136;48.788;9.772;2022-08-21T03:27:43;12.90;98.20
6206;DHT22;3136;48.788;9.772;2022-08-21T03:30:10;12.80;98.10
6206;DHT22;3136;48.788;9.772;2022-08-21T03:32:36;12.80;98.00
6206;DHT22;3136;48.788;9.772;2022-08-21T03:35:04;12.80;98.00
6206;DHT22;3136;48.788;9.772;2022-08-21T03:37:30;12.80;98.20
6206;DHT22;3136;48.788;9.772;2022-08-21T03:39:56;12.80;98.40
6206;DHT22;3136;48.788;9.772;2022-08-21T03:42:22;12.80;98.40
6206;DHT22;3136;48.788;9.772;2022-08-21T03:44:47;13.00;98.50
6206;DHT22;3136;48.788;9.772;2022-08-21T03:47:13;12.80;98.50
6206;DHT22;3136;48.788;9.772;2022-08-21T03:49:39;12.70;98.40
6206;DHT22;3136;48.788;9.772;2022-08-21T03:52:05;12.80;98.40
6206;DHT22;3136;48.788;9.772;2022-08-21T03:54:31;12.70;98.40
6206;DHT22;3136;48.788;9.772;2022-08-21T03:56:56;12.70;98.50
6206;DHT22;3136;48.788;9.772;2022-08-21T03:59:22;12.60;98.50
6206;DHT22;3136;48.788;9.772;2022-08-21T04:02:03;12.60;98.40
6206;DHT22;3136;48.788;9.772;2022-08-21T04:04:29;12.70;98.40
6206;DHT22;3136;48.788;9.772;2022-08-21T04:06:56;12.60;98.50
6206;DHT22;3136;48.788;9.772;2022-08-21T04:09:23;12.50;98.40
6206;DHT22;3136;48.788;9.772;2022-08-21T04:11:49;12.70;98.60
6206;DHT22;3136;48.788;9.772;2022-08-21T04:14:15;12.60;98.70
6206;DHT22;3136;48.788;9.772;2022-08-21T04:16:42;12.60;98.70
6206;DHT22;3136;48.788;9.772;2022-08-21T04:19:09;12.50;98.60
6206;DHT22;3136;48.788;9.772;2022-08-21T04:21:38;12.40;98.40
6206;DHT22;3136;48.788;9.772;2022-08-21T04:24:05;12.40;98.30
6206;DHT22;3136;48.788;9.772;2022-08-21T04:26:33;12.30;98.00
6206;DHT22;3136;48.788;9.772;2022-08-21T04:28:59;12.30;97.90
6206;DHT22;3136;48.788;9.772;2022-08-21T04:31:27;12.30;97.80
6206;DHT22;3136;48.788;9.772;2022-08-21T04:33:56;12.20;97.90
6206;DHT22;3136;48.788;9.772;2022-08-21T04:36:22;12.40;98.10
6206;DHT22;3136;48.788;9.772;2022-08-21T04:38:48;12.60;98.40
6206;DHT22;3136;48.788;9.772;2022-08-21T04:41:14;12.40;98.60
6206;DHT22;3136;48.788;9.772;2022-08-21T04:43:39;12.40;98.80
6206;DHT22;3136;48.788;9.772;2022-08-21T04:46:05;12.50;98.90
6206;DHT22;3136;48.788;9.772;2022-08-21T04:48:31;12.50;99.00
6206;DHT22;3136;48.788;9.772;2022-08-21T04:51:19;12.50;99.00
6206;DHT22;3136;48.788;9.772;2022-08-21T04:53:56;12.50;99.10
6206;DHT22;3136;48.788;9.772;2022-08-21T04:56:30;12.60;99.10
6206;DHT22;3136;48.788;9.772;2022-08-21T04:58:59;12.50;99.00
6206;DHT22;3136;48.788;9.772;2022-08-21T05:01:27;12.60;99.00
6206;DHT22;3136;48.788;9.772;2022-08-21T05:03:56;12.40;98.70
6206;DHT22;3136;48.788;9.772;2022-08-21T05:06:23;12.40;98.60
6206;DHT22;3136;48.788;9.772;2022-08-21T05:08:51;12.40;98.60
6206;DHT22;3136;48.788;9.772;2022-08-21T05:11:18;12.50;98.70
6206;DHT22;3136;48.788;9.772;2022-08-21T05:13:44;12.50;98.80
6206;DHT22;3136;48.788;9.772;2022-08-21T05:16:10;12.50;98.80
6206;DHT22;3136;48.788;9.772;2022-08-21T05:18:36;12.50;98.90
6206;DHT22;3136;48.788;9.772;2022-08-21T05:21:02;12.50;98.80
6206;DHT22;3136;48.788;9.772;2022-08-21T05:23:28;12.50;98.80
6206;DHT22;3136;48.788;9.772;2022-08-21T05:25:54;12.50;98.70
6206;DHT22;3136;48.788;9.772;2022-08-21T05:28:20;12.50;98.60
6206;DHT22;3136;48.788;9.772;2022-08-21T05:30:46;12.50;98.40
6206;DHT22;3136;48.788;9.772;2022-08-21T05:33:11;12.50;98.30
6206;DHT22;3136;48.788;9.772;2022-08-21T05:35:38;12.50;98.30
6206;DHT22;3136;48.788;9.772;2022-08-21T05:38:04;12.60;98.50
6206;DHT22;3136;48.788;9.772;2022-08-21T05:40:30;12.70;98.80
6206;DHT22;3136;48.788;9.772;2022-08-21T05:42:56;12.80;99.10
6206;DHT22;3136;48.788;9.772;2022-08-21T05:45:31;12.80;99.10
6206;DHT22;3136;48.788;9.772;2022-08-21T05:47:57;12.90;99.10
6206;DHT22;3136;48.788;9.772;2022-08-21T05:50:23;12.90;99.00
6206;DHT22;3136;48.788;9.772;2022-08-21T05:52:49;13.00;98.90
6206;DHT22;3136;48.788;9.772;2022-08-21T05:55:15;12.90;98.80
6206;DHT22;3136;48.788;9.772;2022-08-21T05:57:40;13.00;98.90
6206;DHT22;3136;48.788;9.772;2022-08-21T06:00:08;13.00;98.90
6206;DHT22;3136;48.788;9.772;2022-08-21T06:02:36;13.00;98.80
6206;DHT22;3136;48.788;9.772;2022-08-21T06:05:01;13.10;98.80
6206;DHT22;3136;48.788;9.772;2022-08-21T06:07:27;13.10;98.90
6206;DHT22;3136;48.788;9.772;2022-08-21T06:09:52;13.30;99.10
6206;DHT22;3136;48.788;9.772;2022-08-21T06:12:18;13.20;99.10
6206;DHT22;3136;48.788;9.772;2022-08-21T06:14:44;13.30;99.10
6206;DHT22;3136;48.788;9.772;2022-08-21T06:17:11;13.30;99.10
6206;DHT22;3136;48.788;9.772;2022-08-21T06:19:38;13.40;99.20
6206;DHT22;3136;48.788;9.772;2022-08-21T06:22:04;13.50;99.30
6206;DHT22;3136;48.788;9.772;2022-08-21T06:24:30;13.60;99.50
6206;DHT22;3136;48.788;9.772;2022-08-21T06:26:56;13.70;99.60
6206;DHT22;3136;48.788;9.772;2022-08-21T06:29:22;14.00;99.90
6206;DHT22;3136;48.788;9.772;2022-08-21T06:31:49;13.90;99.90
6206;DHT22;3136;48.788;9.772;2022-08-21T06:34:15;13.90;99.90
6206;DHT22;3136;48.788;9.772;2022-08-21T06:36:41;14.10;99.90
6206;DHT22;3136;48.788;9.772;2022-08-21T06:39:07;14.20;99.90
6206;DHT22;3136;48.788;9.772;2022-08-21T06:41:34;14.40;99.90
6206;DHT22;3136;48.788;9.772;2022-08-21T06:43:59;14.30;99.90
6206;DHT22;3136;48.788;9.772;2022-08-21T06:46:27;14.40;99.90
6206;DHT22;3136;48.788;9.772;2022-08-21T06:48:54;14.50;99.80
6206;DHT22;3136;48.788;9.772;2022-08-21T06:51:21;14.50;99.60
6206;DHT22;3136;48.788;9.772;2022-08-21T06:53:46;14.80;99.80
6206;DHT22;3136;48.788;9.772;2022-08-21T06:56:12;14.90;99.90
6206;DHT22;3136;48.788;9.772;2022-08-21T06:58:38;15.00;99.90
6206;DHT22;3136;48.788;9.772;2022-08-21T07:01:04;15.20;99.90
6206;DHT22;3136;48.788;9.772;2022-08-21T07:03:37;15.20;99.90
6206;DHT22;3136;48.788;9.772;2022-08-21T07:06:04;15.40;99.80
6206;DHT22;3136;48.788;9.772;2022-08-21T07:08:30;15.50;99.70
6206;DHT22;3136;48.788;9.772;2022-08-21T07:10:58;15.60;99.90
6206;DHT22;3136;48.788;9.772;2022-08-21T07:13:24;15.70;99.40
6206;DHT22;3136;48.788;9.772;2022-08-21T07:15:50;15.80;99.20
6206;DHT22;3136;48.788;9.772;2022-08-21T07:18:15;15.90;97.50
6206;DHT22;3136;48.788;9.772;2022-08-21T07:20:41;16.00;96.90
6206;DHT22;3136;48.788;9.772;2022-08-21T07:23:12;16.10;96.30
6206;DHT22;3136;48.788;9.772;2022-08-21T07:25:41;16.20;95.10
6206;DHT22;3136;48.788;9.772;2022-08-21T07:28:06;16.30;94.70
6206;DHT22;3136;48.788;9.772;2022-08-21T07:30:32;16.40;94.20
6206;DHT22;3136;48.788;9.772;2022-08-21T07:32:57;16.50;93.90
6206;DHT22;3136;48.788;9.772;2022-08-21T07:35:23;16.60;92.90
6206;DHT22;3136;48.788;9.772;2022-08-21T07:37:49;16.60;91.90
6206;DHT22;3136;48.788;9.772;2022-08-21T07:40:15;16.80;89.80
6206;DHT22;3136;48.788;9.772;2022-08-21T07:42:42;16.90;77.40
6206;DHT22;3136;48.788;9.772;2022-08-21T07:45:09;16.90;77.70
6206;DHT22;3136;48.788;9.772;2022-08-21T07:47:35;17.00;68.50
6206;DHT22;3136;48.788;9.772;2022-08-21T07:50:00;17.10;60.80
6206;DHT22;3136;48.788;9.772;2022-08-21T07:52:26;17.10;52.10
6206;DHT22;3136;48.788;9.772;2022-08-21T07:54:52;17.00;50.80
6206;DHT22;3136;48.788;9.772;2022-08-21T07:57:18;17.30;47.70
6206;DHT22;3136;48.788;9.772;2022-08-21T07:59:44;17.30;46.60
6206;DHT22;3136;48.788;9.772;2022-08-21T08:02:09;17.40;20.80
6206;DHT22;3136;48.788;9.772;2022-08-21T08:04:35;17.40;20.40
6206;DHT22;3136;48.788;9.772;2022-08-21T08:07:00;17.60;27.30
6206;DHT22;3136;48.788;9.772;2022-08-21T08:09:26;17.70;19.60
6206;DHT22;3136;48.788;9.772;2022-08-21T08:11:51;17.80;3.10
6206;DHT22;3136;48.788;9.772;2022-08-21T08:14:17;17.90;1.00
6206;DHT22;3136;48.788;9.772;2022-08-21T08:16:42;17.80;1.00
6206;DHT22;3136;48.788;9.772;2022-08-21T08:19:08;17.70;1.00
6206;DHT22;3136;48.788;9.772;2022-08-21T08:21:34;18.00;1.00
6206;DHT22;3136;48.788;9.772;2022-08-21T08:24:00;18.00;1.00
6206;DHT22;3136;48.788;9.772;2022-08-21T08:26:26;18.10;1.00
6206;DHT22;3136;48.788;9.772;2022-08-21T08:28:52;18.20;1.00
6206;DHT22;3136;48.788;9.772;2022-08-21T08:31:17;18.40;1.00
6206;DHT22;3136;48.788;9.772;2022-08-21T08:33:43;18.50;1.00
6206;DHT22;3136;48.788;9.772;2022-08-21T08:36:16;18.70;1.00
6206;DHT22;3136;48.788;9.772;2022-08-21T08:38:45;18.80;1.00
6206;DHT22;3136;48.788;9.772;2022-08-21T08:41:18;19.00;1.00
6206;DHT22;3136;48.788;9.772;2022-08-21T08:43:55;19.00;1.00
6206;DHT22;3136;48.788;9.772;2022-08-21T08:49:01;19.30;1.00
6206;DHT22;3136;48.788;9.772;2022-08-21T08:51:46;19.30;1.00
6206;DHT22;3136;48.788;9.772;2022-08-21T08:54:19;19.50;1.00
6206;DHT22;3136;48.788;9.772;2022-08-21T08:56:47;19.60;1.00
6206;DHT22;3136;48.788;9.772;2022-08-21T08:59:22;19.70;1.00
6206;DHT22;3136;48.788;9.772;2022-08-21T09:01:51;19.80;1.00
6206;DHT22;3136;48.788;9.772;2022-08-21T09:04:22;19.90;1.00
6206;DHT22;3136;48.788;9.772;2022-08-21T09:06:53;20.00;1.00
6206;DHT22;3136;48.788;9.772;2022-08-21T09:09:29;20.00;1.00
6206;DHT22;3136;48.788;9.772;2022-08-21T09:12:17;20.20;1.00
6206;DHT22;3136;48.788;9.772;2022-08-21T09:15:06;20.30;1.00
6206;DHT22;3136;48.788;9.772;2022-08-21T09:20:41;20.50;1.00
6206;DHT22;3136;48.788;9.772;2022-08-21T09:26:17;20.80;1.00
6206;DHT22;3136;48.788;9.772;2022-08-21T09:28:44;20.90;1.00
6206;DHT22;3136;48.788;9.772;2022-08-21T09:31:39;20.80;1.00
6206;DHT22;3136;48.788;9.772;2022-08-21T09:34:10;21.10;1.00
6206;DHT22;3136;48.788;9.772;2022-08-21T09:36:45;21.20;1.00
6206;DHT22;3136;48.788;9.772;2022-08-21T09:39:21;21.30;1.00
6206;DHT22;3136;48.788;9.772;2022-08-21T09:44:31;21.40;1.00
6206;DHT22;3136;48.788;9.772;2022-08-21T09:46:57;21.60;99.90
6206;DHT22;3136;48.788;9.772;2022-08-21T09:49:35;21.70;99.90
6206;DHT22;3136;48.788;9.772;2022-08-21T09:52:02;21.80;1.00
6206;DHT22;3136;48.788;9.772;2022-08-21T09:54:38;21.90;1.00
6206;DHT22;3136;48.788;9.772;2022-08-21T09:57:12;21.90;99.90
6206;DHT22;3136;48.788;9.772;2022-08-21T10:00:30;22.00;1.00
6206;DHT22;3136;48.788;9.772;2022-08-21T10:03:17;22.30;60.50
6206;DHT22;3136;48.788;9.772;2022-08-21T10:06:05;22.50;98.20
6206;DHT22;3136;48.788;9.772;2022-08-21T10:08:35;22.60;99.90
6206;DHT22;3136;48.788;9.772;2022-08-21T10:11:13;22.80;1.00
6206;DHT22;3136;48.788;9.772;2022-08-21T10:13:43;22.90;1.00
6206;DHT22;3136;48.788;9.772;2022-08-21T10:19:43;23.40;1.00
6206;DHT22;3136;48.788;9.772;2022-08-21T10:22:28;23.40;99.90
6206;DHT22;3136;48.788;9.772;2022-08-21T10:27:44;23.80;99.90
6206;DHT22;3136;48.788;9.772;2022-08-21T10:30:16;24.00;99.90
6206;DHT22;3136;48.788;9.772;2022-08-21T10:35:39;25.00;99.90
6206;DHT22;3136;48.788;9.772;2022-08-21T10:38:31;26.20;99.90
6206;DHT22;3136;48.788;9.772;2022-08-21T10:54:56;30.70;99.90
6206;DHT22;3136;48.788;9.772;2022-08-21T11:00:16;31.20;99.90
6206;DHT22;3136;48.788;9.772;2022-08-21T11:02:53;31.20;99.90
6206;DHT22;3136;48.788;9.772;2022-08-21T11:08:31;31.30;99.90
6206;DHT22;3136;48.788;9.772;2022-08-21T11:11:10;31.60;99.90
6206;DHT22;3136;48.788;9.772;2022-08-21T11:13:48;31.50;99.90
6206;DHT22;3136;48.788;9.772;2022-08-21T11:22:13;32.30;99.90
6206;DHT22;3136;48.788;9.772;2022-08-21T11:25:03;32.30;99.90
6206;DHT22;3136;48.788;9.772;2022-08-21T11:27:34;32.40;99.90
6206;DHT22;3136;48.788;9.772;2022-08-21T11:30:02;33.00;99.90
6206;DHT22;3136;48.788;9.772;2022-08-21T11:40:48;33.60;99.90
6206;DHT22;3136;48.788;9.772;2022-08-21T11:43:41;33.50;99.90
6206;DHT22;3136;48.788;9.772;2022-08-21T11:51:38;28.10;99.90
6206;DHT22;3136;48.788;9.772;2022-08-21T11:54:31;26.70;99.90
6206;DHT22;3136;48.788;9.772;2022-08-21T11:57:07;25.90;99.90
6206;DHT22;3136;48.788;9.772;2022-08-21T12:02:14;26.20;99.90
6206;DHT22;3136;48.788;9.772;2022-08-21T12:05:08;27.70;99.90
6206;DHT22;3136;48.788;9.772;2022-08-21T12:07:41;29.60;99.90
6206;DHT22;3136;48.788;9.772;2022-08-21T12:10:17;30.70;99.90
6206;DHT22;3136;48.788;9.772;2022-08-21T12:12:46;29.80;99.90
6206;DHT22;3136;48.788;9.772;2022-08-21T12:15:30;28.70;99.90
6206;DHT22;3136;48.788;9.772;2022-08-21T12:17:59;27.60;99.90
6206;DHT22;3136;48.788;9.772;2022-08-21T12:25:42;30.20;99.90
6206;DHT22;3136;48.788;9.772;2022-08-21T12:28:15;31.50;99.90
6206;DHT22;3136;48.788;9.772;2022-08-21T12:30:44;32.60;99.90
6206;DHT22;3136;48.788;9.772;2022-08-21T12:33:32;32.80;99.90
6206;DHT22;3136;48.788;9.772;2022-08-21T12:36:21;33.20;99.90
6206;DHT22;3136;48.788;9.772;2022-08-21T12:39:04;33.40;99.90
6206;DHT22;3136;48.788;9.772;2022-08-21T12:41:47;33.50;99.90
6206;DHT22;3136;48.788;9.772;2022-08-21T12:44:17;32.20;99.90
6206;DHT22;3136;48.788;9.772;2022-08-21T12:46:57;31.60;99.90
6206;DHT22;3136;48.788;9.772;2022-08-21T12:50:12;31.70;99.90
6206;DHT22;3136;48.788;9.772;2022-08-21T12:52:55;32.70;99.90
6206;DHT22;3136;48.788;9.772;2022-08-21T12:55:29;33.80;99.90
6206;DHT22;3136;48.788;9.772;2022-08-21T12:57:54;34.90;99.90
6206;DHT22;3136;48.788;9.772;2022-08-21T13:00:24;35.30;99.20
6206;DHT22;3136;48.788;9.772;2022-08-21T13:02:52;35.50;98.00
6206;DHT22;3136;48.788;9.772;2022-08-21T13:05:32;35.00;97.00
6206;DHT22;3136;48.788;9.772;2022-08-21T13:08:02;33.70;97.60
6206;DHT22;3136;48.788;9.772;2022-08-21T13:10:31;32.70;98.20
6206;DHT22;3136;48.788;9.772;2022-08-21T13:13:00;32.60;97.50
6206;DHT22;3136;48.788;9.772;2022-08-21T13:15:30;32.90;95.80
6206;DHT22;3136;48.788;9.772;2022-08-21T13:17:56;33.00;95.40
6206;DHT22;3136;48.788;9.772;2022-08-21T13:20:38;33.70;96.10
6206;DHT22;3136;48.788;9.772;2022-08-21T13:23:26;34.50;95.00
6206;DHT22;3136;48.788;9.772;2022-08-21T13:25:52;34.80;95.40
6206;DHT22;3136;48.788;9.772;2022-08-21T13:28:18;35.00;93.90
6206;DHT22;3136;48.788;9.772;2022-08-21T13:30:47;34.70;92.70
6206;DHT22;3136;48.788;9.772;2022-08-21T13:33:15;34.00;93.30
6206;DHT22;3136;48.788;9.772;2022-08-21T13:38:24;33.70;91.80
6206;DHT22;3136;48.788;9.772;2022-08-21T13:43:36;33.30;90.90
6206;DHT22;3136;48.788;9.772;2022-08-21T13:46:07;33.70;90.40
6206;DHT22;3136;48.788;9.772;2022-08-21T13:48:35;34.10;89.50
6206;DHT22;3136;48.788;9.772;2022-08-21T13:51:01;34.50;90.40
6206;DHT22;3136;48.788;9.772;2022-08-21T13:55:55;34.00;87.70
6206;DHT22;3136;48.788;9.772;2022-08-21T13:58:30;33.50;85.80
6206;DHT22;3136;48.788;9.772;2022-08-21T14:00:56;33.40;85.60
6206;DHT22;3136;48.788;9.772;2022-08-21T14:03:53;33.20;86.30
6206;DHT22;3136;48.788;9.772;2022-08-21T14:06:25;33.30;85.40
6206;DHT22;3136;48.788;9.772;2022-08-21T14:08:55;33.40;84.40
6206;DHT22;3136;48.788;9.772;2022-08-21T14:11:22;33.40;83.80
6206;DHT22;3136;48.788;9.772;2022-08-21T14:16:27;31.90;86.70
6206;DHT22;3136;48.788;9.772;2022-08-21T14:21:30;30.40;87.30
6206;DHT22;3136;48.788;9.772;2022-08-21T14:24:05;29.50;88.30
6206;DHT22;3136;48.788;9.772;2022-08-21T14:26:32;28.80;90.00
6206;DHT22;3136;48.788;9.772;2022-08-21T14:28:59;28.30;90.40
6206;DHT22;3136;48.788;9.772;2022-08-21T14:31:29;28.00;90.90
6206;DHT22;3136;48.788;9.772;2022-08-21T14:33:56;27.70;90.90
6206;DHT22;3136;48.788;9.772;2022-08-21T14:36:22;27.60;90.60
6206;DHT22;3136;48.788;9.772;2022-08-21T14:38:47;27.30;91.10
6206;DHT22;3136;48.788;9.772;2022-08-21T14:41:22;27.20;92.00
6206;DHT22;3136;48.788;9.772;2022-08-21T14:43:49;27.10;91.30
6206;DHT22;3136;48.788;9.772;2022-08-21T14:46:23;27.00;92.70
6206;DHT22;3136;48.788;9.772;2022-08-21T14:48:49;27.00;92.50
6206;DHT22;3136;48.788;9.772;2022-08-21T14:51:16;26.90;92.60
6206;DHT22;3136;48.788;9.772;2022-08-21T14:53:41;26.90;91.80
6206;DHT22;3136;48.788;9.772;2022-08-21T14:56:07;27.00;92.30
6206;DHT22;3136;48.788;9.772;2022-08-21T14:58:36;27.00;91.60
6206;DHT22;3136;48.788;9.772;2022-08-21T15:01:02;26.70;92.10
6206;DHT22;3136;48.788;9.772;2022-08-21T15:03:30;26.60;92.40
6206;DHT22;3136;48.788;9.772;2022-08-21T15:05:56;26.60;91.70
6206;DHT22;3136;48.788;9.772;2022-08-21T15:08:22;26.60;92.90
6206;DHT22;3136;48.788;9.772;2022-08-21T15:10:48;26.60;92.10
6206;DHT22;3136;48.788;9.772;2022-08-21T15:13:13;26.60;92.10
6206;DHT22;3136;48.788;9.772;2022-08-21T15:15:42;26.50;91.10
6206;DHT22;3136;48.788;9.772;2022-08-21T15:18:08;26.50;91.70
6206;DHT22;3136;48.788;9.772;2022-08-21T15:20:35;26.50;91.80
6206;DHT22;3136;48.788;9.772;2022-08-21T15:23:00;26.50;92.10
6206;DHT22;3136;48.788;9.772;2022-08-21T15:25:26;26.40;92.90
6206;DHT22;3136;48.788;9.772;2022-08-21T15:27:52;26.50;92.20
6206;DHT22;3136;48.788;9.772;2022-08-21T15:30:17;26.50;92.80
6206;DHT22;3136;48.788;9.772;2022-08-21T15:32:43;26.50;92.20
6206;DHT22;3136;48.788;9.772;2022-08-21T15:35:09;26.50;91.30
6206;DHT22;3136;48.788;9.772;2022-08-21T15:37:35;26.50;91.50
6206;DHT22;3136;48.788;9.772;2022-08-21T15:40:02;26.50;91.80
6206;DHT22;3136;48.788;9.772;2022-08-21T15:42:28;26.40;92.90
6206;DHT22;3136;48.788;9.772;2022-08-21T15:44:54;26.40;92.10
6206;DHT22;3136;48.788;9.772;2022-08-21T15:47:27;25.20;92.20
6206;DHT22;3136;48.788;9.772;2022-08-21T15:49:53;26.20;92.10
6206;DHT22;3136;48.788;9.772;2022-08-21T15:52:20;26.20;93.00
6206;DHT22;3136;48.788;9.772;2022-08-21T15:54:46;26.20;92.60
6206;DHT22;3136;48.788;9.772;2022-08-21T15:57:14;26.10;91.50
6206;DHT22;3136;48.788;9.772;2022-08-21T15:59:44;26.10;91.90
6206;DHT22;3136;48.788;9.772;2022-08-21T16:02:31;26.00;92.30
6206;DHT22;3136;48.788;9.772;2022-08-21T16:04:58;26.00;92.20
6206;DHT22;3136;48.788;9.772;2022-08-21T16:07:23;26.00;92.90
6206;DHT22;3136;48.788;9.772;2022-08-21T16:09:49;25.90;92.30
6206;DHT22;3136;48.788;9.772;2022-08-21T16:12:24;26.00;92.80
6206;DHT22;3136;48.788;9.772;2022-08-21T16:14:52;25.90;92.80
6206;DHT22;3136;48.788;9.772;2022-08-21T16:17:18;25.90;93.00
6206;DHT22;3136;48.788;9.772;2022-08-21T16:19:43;25.90;92.10
6206;DHT22;3136;48.788;9.772;2022-08-21T16:22:09;25.80;91.60
6206;DHT22;3136;48.788;9.772;2022-08-21T16:24:35;25.70;92.10
6206;DHT22;3136;48.788;9.772;2022-08-21T16:27:01;25.70;91.80
6206;DHT22;3136;48.788;9.772;2022-08-21T16:29:30;25.60;93.20
6206;DHT22;3136;48.788;9.772;2022-08-21T16:31:58;25.50;92.10
6206;DHT22;3136;48.788;9.772;2022-08-21T16:34:23;25.50;92.50
6206;DHT22;3136;48.788;9.772;2022-08-21T16:36:49;25.50;92.00
6206;DHT22;3136;48.788;9.772;2022-08-21T16:39:15;25.50;92.80
6206;DHT22;3136;48.788;9.772;2022-08-21T16:41:40;25.40;92.50
6206;DHT22;3136;48.788;9.772;2022-08-21T16:44:06;25.30;92.50
6206;DHT22;3136;48.788;9.772;2022-08-21T16:46:36;25.30;92.50
6206;DHT22;3136;48.788;9.772;2022-08-21T16:49:02;25.20;93.50
6206;DHT22;3136;48.788;9.772;2022-08-21T16:51:28;25.20;93.40
6206;DHT22;3136;48.788;9.772;2022-08-21T16:53:56;25.10;93.40
6206;DHT22;3136;48.788;9.772;2022-08-21T16:56:22;25.10;93.40
6206;DHT22;3136;48.788;9.772;2022-08-21T16:58:48;24.90;95.70
6206;DHT22;3136;48.788;9.772;2022-08-21T17:01:20;24.80;97.70
6206;DHT22;3136;48.788;9.772;2022-08-21T17:03:48;24.60;99.80
6206;DHT22;3136;48.788;9.772;2022-08-21T17:06:16;24.40;99.90
6206;DHT22;3136;48.788;9.772;2022-08-21T17:08:43;24.20;99.90
6206;DHT22;3136;48.788;9.772;2022-08-21T17:11:24;23.90;99.90
6206;DHT22;3136;48.788;9.772;2022-08-21T17:13:51;23.70;99.90
6206;DHT22;3136;48.788;9.772;2022-08-21T17:16:17;23.50;99.90
6206;DHT22;3136;48.788;9.772;2022-08-21T17:18:43;23.30;99.90
6206;DHT22;3136;48.788;9.772;2022-08-21T17:21:08;23.10;1.00
6206;DHT22;3136;48.788;9.772;2022-08-21T17:23:34;22.90;1.00
6206;DHT22;3136;48.788;9.772;2022-08-21T17:26:00;22.70;1.00
6206;DHT22;3136;48.788;9.772;2022-08-21T17:28:29;22.60;1.00
6206;DHT22;3136;48.788;9.772;2022-08-21T17:30:57;22.30;99.90
6206;DHT22;3136;48.788;9.772;2022-08-21T17:33:25;22.20;99.90
6206;DHT22;3136;48.788;9.772;2022-08-21T17:35:53;22.00;99.90
6206;DHT22;3136;48.788;9.772;2022-08-21T17:38:19;21.90;1.00